Time;durP1;ratioP1;P1;durP2;ratioP2;P2;SDS_P1;SDS_P2;PMS_P1;PMS_P2;Temp;Humidity;BMP_temperature;BMP_pressure;BME280_temperature;BME280_humidity;BME280_pressure;Samples;Min_cycle;Max_cycle;Signal;HPM_P1;HPM_P2
2023/03/02 00:01:45;;;;;;;107.17;19.60;;;-0.80;99.90;;;;;;5023533;28;20438;-71
2023/03/02 00:04:16;;;;;;;108.77;20.40;;;-0.80;99.90;;;;;;5022075;28;20550;-71
2023/03/02 00:06:42;;;;;;;112.40;20.90;;;-0.80;99.90;;;;;;5019425;28;20442;-71
2023/03/02 00:09:07;;;;;;;106.50;19.10;;;-0.80;99.90;;;;;;5022588;28;20453;-71
2023/03/02 00:11:36;;;;;;;101.70;18.90;;;-0.80;99.90;;;;;;5020809;28;20429;-71
2023/03/02 00:14:02;;;;;;;113.53;22.13;;;-0.90;99.90;;;;;;5021347;28;20195;-71
2023/03/02 00:16:27;;;;;;;110.30;18.80;;;-0.90;99.90;;;;;;5024136;28;20931;-71
2023/03/02 00:18:53;;;;;;;107.43;19.57;;;-0.80;99.90;;;;;;5024286;28;20288;-71
2023/03/02 00:21:18;;;;;;;102.50;17.37;;;-0.90;99.90;;;;;;5015897;28;20612;-71
2023/03/02 00:23:44;;;;;;;103.80;18.83;;;-0.90;99.90;;;;;;5024121;28;20210;-72
2023/03/02 00:26:09;;;;;;;105.17;19.17;;;-0.90;99.90;;;;;;5016629;28;20227;-71
2023/03/02 00:28:35;;;;;;;103.10;19.37;;;-0.90;99.90;;;;;;5024132;28;20620;-71
2023/03/02 00:31:05;;;;;;;110.43;20.50;;;-0.90;99.90;;;;;;5023090;28;20213;-71
2023/03/02 00:33:31;;;;;;;110.37;20.50;;;-0.90;99.90;;;;;;5020547;28;20202;-71
2023/03/02 00:35:57;;;;;;;107.60;21.63;;;-0.80;99.90;;;;;;5021965;28;20528;-71
2023/03/02 00:38:22;;;;;;;114.43;22.10;;;-0.80;99.90;;;;;;5020327;28;20471;-71
2023/03/02 00:40:49;;;;;;;108.17;20.23;;;-0.70;99.90;;;;;;5020917;28;20687;-71
2023/03/02 00:43:15;;;;;;;105.17;19.00;;;-0.80;99.90;;;;;;5021248;28;20211;-71
2023/03/02 00:45:41;;;;;;;108.47;21.13;;;-0.70;99.90;;;;;;5019561;28;20948;-71
2023/03/02 00:48:07;;;;;;;105.10;20.50;;;-0.70;99.90;;;;;;5021864;28;20430;-72
2023/03/02 00:50:33;;;;;;;112.77;21.97;;;-0.60;99.90;;;;;;5018636;28;20192;-71
2023/03/02 00:52:59;;;;;;;108.53;21.40;;;-0.60;99.90;;;;;;5023633;28;20512;-70
2023/03/02 00:55:25;;;;;;;110.90;23.00;;;-0.50;99.90;;;;;;5016975;28;20441;-71
2023/03/02 00:57:54;;;;;;;111.37;22.80;;;-0.50;99.90;;;;;;5023384;28;20421;-71
2023/03/02 01:00:22;;;;;;;107.70;21.57;;;-0.40;99.90;;;;;;5016829;28;20289;-71
2023/03/02 01:02:48;;;;;;;112.33;21.60;;;-0.30;99.90;;;;;;5023233;28;20451;-72
2023/03/02 01:05:14;;;;;;;110.63;21.20;;;-0.20;99.90;;;;;;5016546;28;20442;-72
2023/03/02 01:07:40;;;;;;;111.77;22.50;;;-0.10;99.90;;;;;;5023445;28;20767;-72
2023/03/02 01:10:06;;;;;;;116.50;21.37;;;-0.10;99.90;;;;;;5017049;28;20430;-71
2023/03/02 01:12:32;;;;;;;111.87;22.20;;;-0.10;99.90;;;;;;5023065;28;20766;-72
2023/03/02 01:14:58;;;;;;;118.00;25.57;;;-0.10;99.90;;;;;;5017548;28;20532;-72
2023/03/02 01:17:24;;;;;;;112.07;23.80;;;0.00;99.90;;;;;;5022538;28;20199;-71
2023/03/02 01:19:50;;;;;;;114.30;23.70;;;0.10;99.90;;;;;;5019026;28;20405;-72
2023/03/02 01:22:17;;;;;;;117.83;23.97;;;0.10;99.90;;;;;;5021402;28;20534;-72
2023/03/02 01:24:42;;;;;;;108.90;22.00;;;0.10;99.90;;;;;;5019852;28;20806;-71
2023/03/02 01:27:08;;;;;;;118.33;23.97;;;0.20;99.90;;;;;;5020700;28;20412;-72
2023/03/02 01:29:34;;;;;;;107.40;21.93;;;0.20;99.90;;;;;;5021258;28;20180;-72
2023/03/02 01:31:59;;;;;;;120.97;25.00;;;0.20;99.90;;;;;;5019600;28;20547;-71
2023/03/02 01:34:25;;;;;;;116.93;25.20;;;0.20;99.90;;;;;;5021563;28;20185;-72
2023/03/02 01:36:51;;;;;;;117.13;23.97;;;0.30;99.90;;;;;;5019623;28;20207;-72
2023/03/02 01:39:16;;;;;;;111.47;22.33;;;0.30;99.90;;;;;;5021294;28;20210;-71
2023/03/02 01:41:43;;;;;;;110.80;24.40;;;0.30;99.90;;;;;;5020137;28;20712;-72
2023/03/02 01:44:45;;;;;;;117.50;25.40;;;0.30;99.90;;;;;;5019916;28;20265;-72
2023/03/02 01:47:17;;;;;;;110.87;22.83;;;0.30;99.90;;;;;;5017908;28;20427;-72
2023/03/02 01:49:51;;;;;;;122.57;25.47;;;0.30;99.90;;;;;;5017027;28;20843;-72
2023/03/02 01:52:18;;;;;;;121.30;25.20;;;0.30;99.90;;;;;;5020652;28;20501;-72
2023/03/02 01:54:48;;;;;;;110.10;22.17;;;0.30;99.90;;;;;;5020540;28;21000;-71
2023/03/02 01:57:15;;;;;;;111.27;23.53;;;0.30;99.90;;;;;;5018429;28;20433;-71
2023/03/02 01:59:41;;;;;;;123.03;25.70;;;0.30;99.90;;;;;;5017970;28;20464;-71
2023/03/02 03:32:44;;;;;;;111.50;22.60;;;-1.50;99.90;;;;;;5071193;22;20541;-72
2023/03/02 03:35:11;;;;;;;111.50;22.60;;;-1.60;99.90;;;;;;5013382;28;20415;-72
2023/03/02 03:37:40;;;;;;;111.87;23.20;;;-1.50;99.90;;;;;;5019983;28;20229;-72
2023/03/02 03:40:08;;;;;;;111.57;20.73;;;-1.50;99.90;;;;;;5019142;28;20467;-74
2023/03/02 03:42:36;;;;;;;113.00;23.30;;;-1.60;99.90;;;;;;5012468;28;20500;-74
2023/03/02 03:45:02;;;;;;;110.50;21.83;;;-1.60;99.90;;;;;;5005864;28;20405;-72
2023/03/02 03:47:28;;;;;;;108.47;21.87;;;-1.70;99.90;;;;;;5003981;28;20409;-72
2023/03/02 03:49:53;;;;;;;112.77;23.87;;;-1.70;99.90;;;;;;5004062;28;21068;-72
2023/03/02 03:52:29;;;;;;;111.47;22.80;;;-1.70;99.90;;;;;;5004690;28;20215;-72
2023/03/02 03:54:55;;;;;;;120.53;23.80;;;-1.70;99.90;;;;;;5012701;28;20861;-72
2023/03/02 03:57:21;;;;;;;112.63;22.37;;;-1.70;99.90;;;;;;5010622;28;20444;-73
2023/03/02 03:59:46;;;;;;;110.30;22.87;;;-1.80;99.90;;;;;;4993320;28;20456;-72
2023/03/02 04:02:12;;;;;;;113.40;23.40;;;-1.70;99.90;;;;;;5010044;28;20754;-72
2023/03/02 04:04:37;;;;;;;115.90;24.07;;;-1.70;99.90;;;;;;5012241;28;20204;-74
2023/03/02 04:07:03;;;;;;;115.63;21.57;;;-1.70;99.90;;;;;;5012386;28;20199;-72
2023/03/02 04:09:31;;;;;;;114.30;21.77;;;-1.70;99.90;;;;;;5003998;28;20244;-71
2023/03/02 04:11:56;;;;;;;105.40;20.30;;;-1.80;99.90;;;;;;4996786;28;20214;-73
2023/03/02 04:14:23;;;;;;;109.10;21.90;;;-1.80;99.90;;;;;;5009907;28;20479;-72
2023/03/02 04:16:49;;;;;;;106.40;21.87;;;-1.90;99.90;;;;;;5011718;28;20226;-72
2023/03/02 04:19:16;;;;;;;117.43;23.53;;;-1.90;99.90;;;;;;4996243;28;20441;-71
2023/03/02 04:21:45;;;;;;;117.67;24.07;;;-1.90;99.90;;;;;;5001750;28;20523;-72
2023/03/02 04:24:12;;;;;;;116.27;25.30;;;-1.90;99.90;;;;;;5011465;28;20518;-71
2023/03/02 04:26:39;;;;;;;117.33;23.93;;;-2.00;99.90;;;;;;4999917;28;20783;-71
2023/03/02 04:29:05;;;;;;;115.97;26.30;;;-2.00;99.90;;;;;;4999457;28;20484;-72
2023/03/02 04:31:31;;;;;;;115.80;22.07;;;-2.00;99.90;;;;;;5010241;28;20473;-74
2023/03/02 04:33:57;;;;;;;111.90;24.80;;;-2.00;99.90;;;;;;5013327;28;20437;-71
2023/03/02 04:36:23;;;;;;;119.93;24.60;;;-2.00;99.90;;;;;;5009438;28;20191;-73
2023/03/02 04:38:49;;;;;;;121.60;26.43;;;-2.00;99.90;;;;;;5011334;28;20410;-72
2023/03/02 04:41:15;;;;;;;114.37;24.20;;;-2.00;99.90;;;;;;5011233;28;20217;-71
2023/03/02 04:43:40;;;;;;;114.73;23.67;;;-2.00;99.90;;;;;;5009741;28;20241;-72
2023/03/02 04:46:06;;;;;;;118.77;25.57;;;-2.00;99.90;;;;;;5011731;28;20409;-72
2023/03/02 04:48:31;;;;;;;119.20;27.80;;;-2.00;99.90;;;;;;5011577;28;20189;-75
2023/03/02 04:50:57;;;;;;;120.20;26.63;;;-2.00;99.90;;;;;;5011375;28;20216;-72
2023/03/02 04:53:22;;;;;;;123.17;25.47;;;-1.90;99.90;;;;;;4995628;28;20234;-72
2023/03/02 04:55:48;;;;;;;127.63;25.20;;;-1.90;99.90;;;;;;5008568;28;20201;-74
2023/03/02 04:58:14;;;;;;;125.40;27.40;;;-1.90;99.90;;;;;;5011134;28;20190;-73
2023/03/02 05:00:39;;;;;;;132.30;29.03;;;-1.90;99.90;;;;;;5003007;28;20232;-73
2023/03/02 05:03:05;;;;;;;120.93;27.60;;;-1.90;99.90;;;;;;5003535;28;20234;-73
2023/03/02 05:05:32;;;;;;;122.53;26.33;;;-1.90;99.90;;;;;;5011551;28;20190;-72
2023/03/02 05:07:58;;;;;;;127.93;27.23;;;-2.00;99.90;;;;;;5003731;28;20466;-73
2023/03/02 05:10:25;;;;;;;123.23;27.47;;;-1.90;99.90;;;;;;4993095;28;20466;-72
2023/03/02 05:12:55;;;;;;;118.50;26.70;;;-1.90;99.90;;;;;;5011265;28;20186;-72
2023/03/02 05:15:24;;;;;;;124.60;26.50;;;-1.90;99.90;;;;;;5011057;28;20439;-72
2023/03/02 05:17:50;;;;;;;126.57;26.67;;;-1.90;99.90;;;;;;5002546;28;20408;-72
2023/03/02 05:20:16;;;;;;;131.43;30.00;;;-1.90;99.90;;;;;;5010520;28;20408;-71
2023/03/02 05:22:41;;;;;;;132.07;26.77;;;-1.90;99.90;;;;;;5007184;28;20230;-74
2023/03/02 05:25:07;;;;;;;120.43;26.20;;;-1.90;99.90;;;;;;5011344;28;20498;-71
2023/03/02 05:27:33;;;;;;;124.03;26.33;;;-1.80;99.90;;;;;;5014537;28;20349;-71
2023/03/02 05:29:58;;;;;;;123.20;25.17;;;-1.70;99.90;;;;;;5004738;28;20439;-71
2023/03/02 05:32:24;;;;;;;126.70;26.70;;;-1.60;99.90;;;;;;5009428;28;20734;-73
2023/03/02 05:34:49;;;;;;;123.20;26.63;;;-1.60;99.90;;;;;;5004120;28;20183;-73
2023/03/02 05:37:15;;;;;;;139.47;29.00;;;-1.50;99.90;;;;;;5003008;28;20254;-74
2023/03/02 05:39:40;;;;;;;115.80;25.70;;;-1.50;99.90;;;;;;5010518;28;20530;-75
2023/03/02 05:42:06;;;;;;;125.47;27.80;;;-1.50;99.90;;;;;;5010013;28;20722;-71
2023/03/02 05:44:31;;;;;;;137.47;29.20;;;-1.40;99.90;;;;;;5010839;28;20222;-73
2023/03/02 05:46:57;;;;;;;104.03;25.30;;;-1.30;99.90;;;;;;5005415;28;20191;-73
2023/03/02 05:49:22;;;;;;;113.07;25.67;;;-1.20;99.90;;;;;;5007097;28;20222;-70
2023/03/02 05:51:48;;;;;;;111.10;26.53;;;-1.20;99.90;;;;;;4999295;28;20708;-71
2023/03/02 05:54:14;;;;;;;112.93;26.13;;;-1.10;99.90;;;;;;4999484;28;20235;-71
2023/03/02 05:56:40;;;;;;;118.13;27.40;;;-1.00;99.90;;;;;;5006559;28;20537;-71
2023/03/02 05:59:07;;;;;;;118.23;27.97;;;-0.90;99.90;;;;;;5004749;28;20521;-70
2023/03/02 06:01:32;;;;;;;124.17;27.70;;;-0.80;99.90;;;;;;5006119;28;20465;-70
2023/03/02 06:03:58;;;;;;;129.63;27.87;;;-0.80;99.90;;;;;;5006476;28;20552;-72
2023/03/02 06:06:23;;;;;;;123.00;27.20;;;-0.80;99.90;;;;;;5009727;28;20656;-70
2023/03/02 06:08:49;;;;;;;117.17;26.20;;;-0.80;99.90;;;;;;5010629;28;20190;-71
2023/03/02 06:11:14;;;;;;;124.10;27.40;;;-0.80;99.90;;;;;;5008794;28;20216;-71
2023/03/02 06:13:40;;;;;;;120.97;27.70;;;-0.70;99.90;;;;;;5000449;28;20273;-71
2023/03/02 06:16:06;;;;;;;119.30;28.97;;;-0.60;99.90;;;;;;5005039;28;20236;-72
2023/03/02 06:18:32;;;;;;;120.47;27.63;;;-0.60;99.90;;;;;;5010043;28;20696;-72
2023/03/02 06:20:58;;;;;;;126.83;28.03;;;-0.60;99.90;;;;;;5007137;28;20470;-72
2023/03/02 06:23:24;;;;;;;127.60;28.30;;;-0.50;99.90;;;;;;5003283;28;20461;-69
2023/03/02 06:25:50;;;;;;;113.10;26.80;;;-0.50;99.90;;;;;;5005473;28;20776;-73
2023/03/02 06:28:18;;;;;;;125.23;29.20;;;-0.40;99.90;;;;;;5009452;28;20194;-71
2023/03/02 06:30:43;;;;;;;131.63;32.67;;;-0.30;99.90;;;;;;5009571;28;20963;-71
2023/03/02 06:33:09;;;;;;;124.33;29.23;;;-0.30;99.90;;;;;;5009714;28;20449;-71
2023/03/02 06:35:34;;;;;;;128.20;28.50;;;-0.30;99.90;;;;;;5003548;28;20222;-68
2023/03/02 06:38:00;;;;;;;120.67;27.30;;;-0.20;99.90;;;;;;4998460;28;20193;-72
2023/03/02 06:40:25;;;;;;;121.13;27.50;;;-0.10;99.90;;;;;;4999219;28;20208;-70
2023/03/02 06:42:51;;;;;;;122.97;26.77;;;-0.10;99.90;;;;;;5005811;28;20663;-70
2023/03/02 06:45:16;;;;;;;122.00;28.40;;;0.00;99.90;;;;;;5005950;28;20226;-71
2023/03/02 06:47:42;;;;;;;119.60;27.23;;;0.10;99.90;;;;;;5021036;28;20204;-70
2023/03/02 06:50:08;;;;;;;121.10;28.10;;;0.10;99.90;;;;;;4999311;28;20220;-70
2023/03/02 06:52:34;;;;;;;122.37;27.40;;;0.20;99.90;;;;;;4999006;28;20706;-70
2023/03/02 06:54:59;;;;;;;121.47;28.80;;;0.20;99.90;;;;;;5007409;28;20450;-72
2023/03/02 06:57:32;;;;;;;124.83;30.40;;;0.20;99.90;;;;;;5006451;28;20198;-71
2023/03/02 06:59:58;;;;;;;120.60;29.43;;;0.30;99.90;;;;;;4999298;28;20191;-72
2023/03/02 07:02:24;;;;;;;126.40;30.87;;;0.30;99.90;;;;;;5012328;28;20464;-73
2023/03/02 07:04:49;;;;;;;129.47;30.53;;;0.30;99.90;;;;;;5008269;28;20450;-72
2023/03/02 07:07:15;;;;;;;115.83;26.30;;;0.40;99.90;;;;;;5001570;28;20678;-72
2023/03/02 07:09:40;;;;;;;127.27;29.50;;;0.40;99.90;;;;;;5010096;28;20229;-72
2023/03/02 07:12:06;;;;;;;124.00;30.13;;;0.50;99.90;;;;;;5006081;28;20211;-71
2023/03/02 07:14:35;;;;;;;122.60;27.90;;;0.50;99.90;;;;;;5010750;28;20228;-71
2023/03/02 07:17:03;;;;;;;134.50;30.33;;;0.60;99.90;;;;;;5005681;28;20200;-71
2023/03/02 07:19:29;;;;;;;127.50;27.97;;;0.70;99.90;;;;;;5008807;28;20478;-70
2023/03/02 07:21:54;;;;;;;133.77;29.30;;;0.70;99.90;;;;;;5011774;28;20549;-70
2023/03/02 07:24:21;;;;;;;127.57;31.40;;;0.70;99.90;;;;;;5013416;28;20207;-70
2023/03/02 07:26:46;;;;;;;133.73;29.73;;;0.80;99.90;;;;;;5005186;28;20557;-72
2023/03/02 07:29:12;;;;;;;143.90;35.20;;;0.90;99.90;;;;;;5003514;28;20432;-70
2023/03/02 07:31:38;;;;;;;128.73;31.00;;;0.90;99.90;;;;;;4998169;28;20261;-70
2023/03/02 07:34:03;;;;;;;138.80;29.17;;;1.00;99.90;;;;;;4995698;28;20191;-72
2023/03/02 07:36:29;;;;;;;138.07;30.57;;;1.00;99.90;;;;;;5002247;28;20269;-71
2023/03/02 07:38:54;;;;;;;120.83;29.30;;;1.00;99.90;;;;;;5002394;28;20550;-70
2023/03/02 07:41:21;;;;;;;123.90;28.97;;;1.10;99.90;;;;;;5006829;28;20215;-70
2023/03/02 07:43:47;;;;;;;124.67;27.20;;;1.20;99.90;;;;;;5004290;28;20208;-70
2023/03/02 07:46:13;;;;;;;124.07;29.53;;;1.20;99.90;;;;;;5010385;28;20435;-69
2023/03/02 07:48:38;;;;;;;126.63;27.00;;;1.30;99.90;;;;;;5001486;28;20190;-72
2023/03/02 07:51:05;;;;;;;124.10;28.63;;;1.30;99.90;;;;;;5011699;28;20206;-73
2023/03/02 07:53:31;;;;;;;123.93;27.93;;;1.40;99.90;;;;;;5010076;28;20195;-71
2023/03/02 07:55:56;;;;;;;121.20;26.73;;;1.50;99.90;;;;;;5012926;28;20436;-72
2023/03/02 07:58:23;;;;;;;124.63;28.87;;;1.60;99.90;;;;;;5004657;28;20197;-72
2023/03/02 08:00:49;;;;;;;126.17;27.73;;;1.60;99.90;;;;;;5012002;28;20647;-73
2023/03/02 08:03:14;;;;;;;123.80;26.90;;;1.60;99.90;;;;;;5003850;28;20479;-72
2023/03/02 08:05:40;;;;;;;123.03;27.90;;;1.80;99.90;;;;;;5005233;28;20497;-71
2023/03/02 08:08:05;;;;;;;117.80;27.20;;;1.80;99.90;;;;;;5002197;28;20240;-72
2023/03/02 08:10:34;;;;;;;123.90;26.13;;;2.10;99.90;;;;;;5003989;28;20188;-71
2023/03/02 08:12:59;;;;;;;124.63;28.47;;;2.20;99.90;;;;;;5011629;28;20555;-72
2023/03/02 08:15:25;;;;;;;121.93;28.27;;;2.30;99.90;;;;;;5003991;28;20446;-72
2023/03/02 08:17:51;;;;;;;120.17;26.27;;;2.40;99.90;;;;;;4996130;28;21012;-72
2023/03/02 08:20:17;;;;;;;130.57;25.47;;;2.50;99.90;;;;;;5006791;28;20229;-72
2023/03/02 08:22:42;;;;;;;121.87;26.27;;;2.60;99.90;;;;;;5011787;28;20479;-72
2023/03/02 08:25:08;;;;;;;129.73;26.33;;;2.70;99.90;;;;;;5011843;28;20222;-71
2023/03/02 08:27:34;;;;;;;125.93;26.87;;;2.80;99.90;;;;;;5004016;28;20249;-72
2023/03/02 08:29:59;;;;;;;124.80;26.83;;;2.90;99.90;;;;;;5011412;28;20962;-73
2023/03/02 08:32:25;;;;;;;124.70;26.97;;;3.10;99.90;;;;;;5005476;28;20272;-72
2023/03/02 08:34:50;;;;;;;124.87;27.23;;;3.30;99.90;;;;;;4999661;28;20624;-72
2023/03/02 08:37:17;;;;;;;119.60;26.03;;;3.50;99.90;;;;;;5000181;28;20220;-73
2023/03/02 08:39:43;;;;;;;114.67;24.43;;;3.80;99.90;;;;;;4994947;28;20193;-73
2023/03/02 08:42:08;;;;;;;114.23;25.00;;;4.00;99.90;;;;;;5000577;28;20444;-72
2023/03/02 08:44:34;;;;;;;116.90;22.97;;;4.00;99.90;;;;;;5000101;28;20221;-72
2023/03/02 08:46:59;;;;;;;114.67;24.20;;;4.20;99.90;;;;;;5000678;28;20200;-71
2023/03/02 08:49:25;;;;;;;115.13;25.27;;;4.40;99.90;;;;;;4998425;28;20198;-72
2023/03/02 08:51:52;;;;;;;114.57;24.60;;;4.70;99.90;;;;;;4999414;28;20249;-71
2023/03/02 08:54:19;;;;;;;116.17;23.87;;;4.80;99.90;;;;;;4999563;28;20639;-74
2023/03/02 08:56:45;;;;;;;111.03;22.67;;;4.80;99.90;;;;;;4998275;28;20445;-71
2023/03/02 08:59:12;;;;;;;111.53;22.90;;;4.90;99.90;;;;;;4999653;28;20835;-72
2023/03/02 09:01:38;;;;;;;109.70;23.57;;;5.20;99.90;;;;;;4999886;28;20339;-72
2023/03/02 09:04:06;;;;;;;109.70;22.00;;;5.30;99.90;;;;;;4999071;28;20495;-74
2023/03/02 09:06:35;;;;;;;112.87;24.80;;;5.30;99.90;;;;;;4999539;28;20448;-71
2023/03/02 09:09:01;;;;;;;117.27;25.73;;;5.50;99.90;;;;;;5001009;28;20434;-72
2023/03/02 09:11:26;;;;;;;113.33;23.00;;;5.70;99.90;;;;;;5001526;28;20906;-72
2023/03/02 09:13:53;;;;;;;110.47;23.90;;;6.00;99.90;;;;;;5009350;28;20248;-72
2023/03/02 09:16:19;;;;;;;119.23;24.67;;;6.20;99.90;;;;;;5002638;28;20564;-73
2023/03/02 09:18:48;;;;;;;114.47;24.70;;;6.70;99.90;;;;;;5021625;28;20435;-72
2023/03/02 09:21:13;;;;;;;110.50;21.43;;;7.40;99.90;;;;;;5004661;28;20220;-72
2023/03/02 09:23:39;;;;;;;115.27;23.13;;;7.80;99.90;;;;;;5009273;28;20513;-71
2023/03/02 09:26:05;;;;;;;106.87;21.50;;;8.40;99.90;;;;;;5002963;28;20193;-71
2023/03/02 09:28:31;;;;;;;122.00;24.37;;;8.60;99.90;;;;;;5011014;28;20228;-71
2023/03/02 09:30:58;;;;;;;116.17;22.30;;;8.90;99.90;;;;;;5008512;28;20579;-70
2023/03/02 09:33:24;;;;;;;108.83;21.60;;;9.40;99.90;;;;;;4996958;28;21041;-72
2023/03/02 09:35:50;;;;;;;109.67;20.33;;;9.50;99.90;;;;;;4999858;28;20441;-73
2023/03/02 09:38:17;;;;;;;105.47;22.20;;;9.50;99.90;;;;;;5009798;28;20486;-72
2023/03/02 09:40:48;;;;;;;108.90;22.13;;;9.80;99.90;;;;;;5009443;28;20207;-72
2023/03/02 09:43:16;;;;;;;107.23;21.50;;;10.20;99.90;;;;;;5010800;28;20476;-72
2023/03/02 09:46:03;;;;;;;110.13;21.53;;;10.40;99.90;;;;;;5010876;28;20427;-71
2023/03/02 09:48:37;;;;;;;113.93;22.03;;;10.30;99.90;;;;;;5008356;28;20863;-72
2023/03/02 09:51:15;;;;;;;113.60;21.87;;;10.00;99.90;;;;;;5008944;28;20467;-72
2023/03/02 09:53:59;;;;;;;115.03;21.93;;;9.50;99.90;;;;;;5002811;28;21002;-72
2023/03/02 09:56:25;;;;;;;110.00;22.03;;;9.20;99.90;;;;;;5002399;28;20447;-72
2023/03/02 09:58:58;;;;;;;29.40;17.50;;;8.90;99.90;;;;;;5009655;28;21599;-73
2023/03/02 10:01:37;;;;;;;31.03;18.33;;;9.00;99.90;;;;;;5010707;28;20461;-73
2023/03/02 10:04:20;;;;;;;30.00;18.30;;;9.20;99.90;;;;;;5003425;28;20473;-73
2023/03/02 10:06:45;;;;;;;31.27;21.60;;;9.60;99.90;;;;;;5002749;28;20467;-74
2023/03/02 10:09:11;;;;;;;29.10;18.27;;;10.10;99.90;;;;;;5002662;28;20533;-73
2023/03/02 10:12:09;;;;;;;28.40;16.97;;;10.30;99.90;;;;;;5009308;28;20209;-73
2023/03/02 10:14:42;;;;;;;28.60;17.30;;;10.20;99.90;;;;;;4979837;28;20325;-72
2023/03/02 10:17:40;;;;;;;32.67;19.73;;;10.40;99.90;;;;;;5010587;28;20421;-72
2023/03/02 10:20:17;;;;;;;34.57;20.60;;;11.00;99.90;;;;;;5010366;28;20429;-72
2023/03/02 10:22:59;;;;;;;38.87;21.50;;;11.00;99.90;;;;;;5006139;28;20457;-73
2023/03/02 10:25:30;;;;;;;28.80;19.43;;;11.10;99.90;;;;;;5014615;28;20448;-74
2023/03/02 10:28:11;;;;;;;70.83;28.03;;;11.30;99.90;;;;;;5014304;28;20433;-72
2023/03/02 10:30:38;;;;;;;34.03;18.90;;;11.50;99.90;;;;;;5014036;28;20455;-72
2023/03/02 10:33:15;;;;;;;31.33;18.30;;;11.70;99.90;;;;;;5010399;28;20438;-72
2023/03/02 10:35:46;;;;;;;29.83;18.03;;;11.80;99.90;;;;;;5003202;28;20467;-71
2023/03/02 10:38:18;;;;;;;30.37;18.60;;;12.00;99.90;;;;;;5008070;28;20467;-72
2023/03/02 10:40:58;;;;;;;242.93;141.80;;;12.20;99.90;;;;;;5013846;28;20456;-72
2023/03/02 10:43:45;;;;;;;584.50;527.77;;;12.50;99.90;;;;;;5014538;28;20469;-73
2023/03/02 10:46:12;;;;;;;1999.90;999.90;;;12.60;99.90;;;;;;5014168;28;20770;-72
2023/03/02 10:48:55;;;;;;;1999.90;999.90;;;12.70;99.90;;;;;;5005680;28;20997;-71
2023/03/02 10:51:25;;;;;;;1999.90;999.90;;;13.10;99.90;;;;;;5008908;28;20503;-72
2023/03/02 10:54:13;;;;;;;1999.90;999.90;;;12.90;99.90;;;;;;5011627;28;20421;-72
2023/03/02 10:56:47;;;;;;;1999.90;999.90;;;12.80;99.90;;;;;;4995348;28;20421;-73
2023/03/02 10:59:25;;;;;;;1999.90;999.90;;;13.00;99.90;;;;;;5005975;28;20430;-73
2023/03/02 11:02:01;;;;;;;1999.90;999.90;;;13.20;99.90;;;;;;5027518;28;20445;-72
2023/03/02 11:04:28;;;;;;;1999.90;999.90;;;13.30;99.90;;;;;;5014093;28;20464;-74
2023/03/02 11:06:54;;;;;;;1999.90;999.90;;;13.20;99.90;;;;;;4996913;28;20805;-73
2023/03/02 11:09:19;;;;;;;1999.90;999.90;;;13.40;99.90;;;;;;5013790;28;20430;-73
2023/03/02 11:11:53;;;;;;;1999.90;999.90;;;13.40;99.90;;;;;;5005738;28;20217;-73
2023/03/02 11:14:19;;;;;;;1999.90;999.90;;;13.40;99.90;;;;;;5014012;28;20534;-73
2023/03/02 11:16:44;;;;;;;81.13;18.83;;;13.60;99.90;;;;;;5013696;28;20436;-73
2023/03/02 11:19:15;;;;;;;76.37;19.17;;;13.00;99.90;;;;;;5013650;28;20288;-73
2023/03/02 11:22:21;;;;;;;73.50;18.10;;;12.80;99.90;;;;;;5013431;28;20206;-72
2023/03/02 11:24:55;;;;;;;89.30;18.67;;;12.80;99.90;;;;;;5003790;28;20478;-73
2023/03/02 11:27:26;;;;;;;89.00;17.17;;;12.20;99.90;;;;;;5007598;28;20437;-73
2023/03/02 11:30:19;;;;;;;45.70;17.70;;;11.70;99.90;;;;;;5003861;28;20456;-72
2023/03/02 11:32:51;;;;;;;38.57;17.80;;;11.50;99.90;;;;;;5012688;28;20568;-72
2023/03/02 11:35:45;;;;;;;37.40;16.37;;;11.90;99.90;;;;;;5013697;28;20425;-73
2023/03/02 11:38:28;;;;;;;86.47;18.57;;;12.30;99.90;;;;;;5004130;28;20429;-73
2023/03/02 11:41:02;;;;;;;95.50;20.13;;;12.70;99.90;;;;;;5005003;28;20451;-72
2023/03/02 11:43:28;;;;;;;137.67;57.70;;;12.50;99.90;;;;;;5005834;28;20500;-73
2023/03/02 11:46:04;;;;;;;97.17;18.77;;;12.50;99.90;;;;;;5005256;28;20421;-72
2023/03/02 11:48:47;;;;;;;96.97;17.33;;;12.30;99.90;;;;;;5014017;28;20311;-72
2023/03/02 11:51:27;;;;;;;106.60;20.20;;;12.40;99.90;;;;;;5013233;28;20588;-72
2023/03/02 11:54:02;;;;;;;107.87;22.73;;;12.70;99.90;;;;;;5004907;28;20922;-72
2023/03/02 11:56:32;;;;;;;105.27;19.90;;;13.00;99.90;;;;;;5014136;28;20437;-72
2023/03/02 11:59:10;;;;;;;105.63;24.23;;;13.10;99.90;;;;;;4997389;28;20808;-72
2023/03/02 12:01:39;;;;;;;105.60;23.40;;;12.90;99.90;;;;;;5005417;28;20445;-72
2023/03/02 12:04:31;;;;;;;100.20;22.07;;;12.40;99.90;;;;;;5013090;28;20503;-74
2023/03/02 12:06:57;;;;;;;101.77;20.47;;;12.20;99.90;;;;;;4990708;28;20815;-72
2023/03/02 12:09:22;;;;;;;97.33;19.33;;;12.00;99.90;;;;;;5013068;28;20432;-74
2023/03/02 12:11:58;;;;;;;97.43;19.00;;;12.30;99.90;;;;;;5011900;28;21211;-72
2023/03/02 12:14:36;;;;;;;107.80;20.20;;;12.50;99.90;;;;;;5006928;28;20187;-73
2023/03/02 12:17:25;;;;;;;102.23;22.40;;;12.50;99.90;;;;;;5012048;28;20421;-73
2023/03/02 12:19:53;;;;;;;97.90;20.90;;;12.60;99.90;;;;;;5003599;28;20442;-73
2023/03/02 12:22:30;;;;;;;86.87;19.57;;;12.50;99.90;;;;;;5012644;28;21056;-73
2023/03/02 12:25:21;;;;;;;90.50;19.60;;;12.30;99.90;;;;;;5009724;28;20830;-72
2023/03/02 12:27:48;;;;;;;101.70;19.93;;;11.70;99.90;;;;;;5000988;28;20489;-73
2023/03/02 12:30:14;;;;;;;93.40;19.57;;;11.30;99.90;;;;;;5012135;28;20436;-73
2023/03/02 12:32:42;;;;;;;92.50;19.73;;;11.50;99.90;;;;;;5012229;28;20460;-75
2023/03/02 12:35:07;;;;;;;104.40;21.37;;;11.70;99.90;;;;;;4992828;28;20188;-73
2023/03/02 12:37:52;;;;;;;99.37;20.80;;;11.80;99.90;;;;;;5007686;28;20484;-73
2023/03/02 12:40:43;;;;;;;96.13;20.23;;;11.70;99.90;;;;;;4997474;28;20267;-72
2023/03/02 12:43:26;;;;;;;106.27;20.67;;;11.60;99.90;;;;;;5010734;28;20556;-73
2023/03/02 12:46:17;;;;;;;89.73;18.80;;;11.50;99.90;;;;;;5010944;28;20462;-72
2023/03/02 12:48:58;;;;;;;92.67;19.40;;;11.50;99.90;;;;;;5011620;28;20949;-71
2023/03/02 12:51:26;;;;;;;90.77;19.57;;;11.20;99.90;;;;;;5006193;28;20445;-73
2023/03/02 12:54:06;;;;;;;104.00;20.97;;;11.40;99.90;;;;;;5003368;28;20476;-73
2023/03/02 12:56:32;;;;;;;95.33;23.43;;;11.40;99.90;;;;;;5011653;28;20468;-73
2023/03/02 12:58:57;;;;;;;92.87;20.47;;;11.40;99.90;;;;;;5023434;28;20457;-74
2023/03/02 13:01:29;;;;;;;96.63;20.87;;;11.50;99.90;;;;;;5009628;28;20217;-73
2023/03/02 13:03:55;;;;;;;94.67;21.87;;;11.40;99.90;;;;;;5010283;28;20273;-73
2023/03/02 13:06:22;;;;;;;90.83;20.80;;;11.20;99.90;;;;;;5010796;28;20532;-72
2023/03/02 13:08:57;;;;;;;90.47;20.60;;;11.30;99.90;;;;;;5010504;28;20178;-74
2023/03/02 13:11:30;;;;;;;94.50;19.70;;;11.30;99.90;;;;;;5009873;28;20488;-73
2023/03/02 13:13:58;;;;;;;99.50;21.17;;;11.20;99.90;;;;;;5011039;28;20454;-73
2023/03/02 13:16:30;;;;;;;87.67;18.73;;;11.20;99.90;;;;;;5011331;28;20441;-73
2023/03/02 13:19:08;;;;;;;97.67;20.63;;;11.20;99.90;;;;;;5012983;28;20528;-73
2023/03/02 13:21:36;;;;;;;96.97;20.40;;;11.10;99.90;;;;;;5004484;28;20849;-73
2023/03/02 13:24:03;;;;;;;96.33;19.33;;;11.00;99.90;;;;;;4999264;28;20552;-73
2023/03/02 13:26:33;;;;;;;97.80;20.50;;;11.10;99.90;;;;;;5017835;28;20449;-73
2023/03/02 13:29:06;;;;;;;99.70;20.50;;;11.00;99.90;;;;;;5009585;28;20422;-72
2023/03/02 13:31:33;;;;;;;93.97;20.10;;;11.10;99.90;;;;;;5011188;28;20459;-72
2023/03/02 13:33:59;;;;;;;98.60;19.90;;;11.00;99.90;;;;;;5010502;28;20979;-72
2023/03/02 13:36:38;;;;;;;117.03;22.23;;;11.00;99.90;;;;;;5011115;28;20429;-73
2023/03/02 13:39:07;;;;;;;102.33;20.00;;;10.90;99.90;;;;;;5010791;28;20969;-73
2023/03/02 13:41:35;;;;;;;106.97;21.70;;;10.80;99.90;;;;;;5011032;28;20516;-73
2023/03/02 13:44:18;;;;;;;105.77;21.50;;;10.80;99.90;;;;;;5010522;28;20506;-73
2023/03/02 13:46:44;;;;;;;104.23;21.23;;;10.60;99.90;;;;;;5011291;28;20429;-73
2023/03/02 13:49:10;;;;;;;106.50;22.27;;;10.70;99.90;;;;;;4994951;28;20477;-73
2023/03/02 13:51:39;;;;;;;105.50;19.83;;;10.70;99.90;;;;;;5011158;28;20589;-73
2023/03/02 13:54:39;;;;;;;104.33;20.10;;;10.60;99.90;;;;;;5002449;28;20686;-73
2023/03/02 13:57:05;;;;;;;104.57;19.80;;;10.70;99.90;;;;;;4993639;28;20871;-72
2023/03/02 13:59:35;;;;;;;104.10;20.00;;;10.70;99.90;;;;;;5010768;28;20440;-73
2023/03/02 14:02:00;;;;;;;107.10;21.00;;;10.60;99.90;;;;;;5010399;28;20872;-72